sensor_id;sensor_type;location;lat;lon;timestamp;P1;durP1;ratioP1;P2;durP2;ratioP2
52380;SDS011;38310;52.796;6.942;2023-04-01T00:00:59;8.32;;;6.30;;
52380;SDS011;38310;52.796;6.942;2023-04-01T00:03:26;11.00;;;7.38;;
52380;SDS011;38310;52.796;6.942;2023-04-01T00:05:52;9.43;;;7.13;;
52380;SDS011;38310;52.796;6.942;2023-04-01T00:08:18;11.80;;;7.65;;
52380;SDS011;38310;52.796;6.942;2023-04-01T00:10:44;8.93;;;7.15;;
52380;SDS011;38310;52.796;6.942;2023-04-01T00:13:10;9.85;;;7.43;;
52380;SDS011;38310;52.796;6.942;2023-04-01T00:15:36;9.65;;;6.90;;
52380;SDS011;38310;52.796;6.942;2023-04-01T00:18:02;8.82;;;6.65;;
52380;SDS011;38310;52.796;6.942;2023-04-01T00:20:28;9.55;;;7.07;;
52380;SDS011;38310;52.796;6.942;2023-04-01T00:22:54;11.45;;;7.28;;
52380;SDS011;38310;52.796;6.942;2023-04-01T00:25:21;10.38;;;6.93;;
52380;SDS011;38310;52.796;6.942;2023-04-01T00:27:47;10.32;;;7.28;;
52380;SDS011;38310;52.796;6.942;2023-04-01T00:30:14;11.07;;;6.55;;
52380;SDS011;38310;52.796;6.942;2023-04-01T00:32:40;11.07;;;6.82;;
52380;SDS011;38310;52.796;6.942;2023-04-01T00:35:06;9.20;;;6.50;;
52380;SDS011;38310;52.796;6.942;2023-04-01T00:37:34;11.45;;;7.15;;
52380;SDS011;38310;52.796;6.942;2023-04-01T00:40:02;12.25;;;7.43;;
52380;SDS011;38310;52.796;6.942;2023-04-01T00:42:30;9.18;;;6.35;;
52380;SDS011;38310;52.796;6.942;2023-04-01T00:44:56;8.75;;;6.50;;
52380;SDS011;38310;52.796;6.942;2023-04-01T00:47:22;8.90;;;6.68;;
52380;SDS011;38310;52.796;6.942;2023-04-01T00:49:50;9.07;;;6.78;;
52380;SDS011;38310;52.796;6.942;2023-04-01T00:52:20;12.32;;;7.57;;
52380;SDS011;38310;52.796;6.942;2023-04-01T00:54:48;10.05;;;6.80;;
52380;SDS011;38310;52.796;6.942;2023-04-01T00:57:28;9.85;;;7.47;;
52380;SDS011;38310;52.796;6.942;2023-04-01T00:59:58;7.75;;;6.38;;
52380;SDS011;38310;52.796;6.942;2023-04-01T01:02:24;10.35;;;6.95;;
52380;SDS011;38310;52.796;6.942;2023-04-01T01:04:50;9.90;;;7.22;;
52380;SDS011;38310;52.796;6.942;2023-04-01T01:10:20;9.38;;;6.18;;
52380;SDS011;38310;52.796;6.942;2023-04-01T01:13:15;9.25;;;6.07;;
52380;SDS011;38310;52.796;6.942;2023-04-01T01:18:43;9.35;;;5.50;;
52380;SDS011;38310;52.796;6.942;2023-04-01T01:21:28;7.45;;;5.57;;
52380;SDS011;38310;52.796;6.942;2023-04-01T01:32:33;8.98;;;6.07;;
52380;SDS011;38310;52.796;6.942;2023-04-01T01:37:55;7.70;;;5.45;;
52380;SDS011;38310;52.796;6.942;2023-04-01T01:40:24;9.30;;;5.82;;
52380;SDS011;38310;52.796;6.942;2023-04-01T01:42:53;7.82;;;5.63;;
52380;SDS011;38310;52.796;6.942;2023-04-01T01:45:23;6.65;;;5.70;;
52380;SDS011;38310;52.796;6.942;2023-04-01T01:47:51;10.25;;;6.03;;
52380;SDS011;38310;52.796;6.942;2023-04-01T01:50:18;8.20;;;5.65;;
52380;SDS011;38310;52.796;6.942;2023-04-01T01:52:46;10.13;;;6.25;;
52380;SDS011;38310;52.796;6.942;2023-04-01T01:55:26;10.07;;;6.32;;
52380;SDS011;38310;52.796;6.942;2023-04-01T01:57:55;9.77;;;6.57;;
52380;SDS011;38310;52.796;6.942;2023-04-01T02:00:25;11.10;;;6.45;;
52380;SDS011;38310;52.796;6.942;2023-04-01T02:02:51;8.60;;;6.40;;
52380;SDS011;38310;52.796;6.942;2023-04-01T02:05:19;9.88;;;7.03;;
52380;SDS011;38310;52.796;6.942;2023-04-01T02:07:49;11.52;;;7.47;;
52380;SDS011;38310;52.796;6.942;2023-04-01T02:10:22;9.55;;;6.85;;
52380;SDS011;38310;52.796;6.942;2023-04-01T02:12:51;13.00;;;7.20;;
52380;SDS011;38310;52.796;6.942;2023-04-01T02:15:21;12.82;;;7.90;;
52380;SDS011;38310;52.796;6.942;2023-04-01T02:17:49;9.80;;;7.25;;
52380;SDS011;38310;52.796;6.942;2023-04-01T02:20:21;11.30;;;7.97;;
52380;SDS011;38310;52.796;6.942;2023-04-01T02:22:49;11.77;;;8.77;;
52380;SDS011;38310;52.796;6.942;2023-04-01T02:25:20;10.40;;;7.82;;
52380;SDS011;38310;52.796;6.942;2023-04-01T02:27:52;13.90;;;8.38;;
52380;SDS011;38310;52.796;6.942;2023-04-01T02:30:20;10.85;;;8.00;;
52380;SDS011;38310;52.796;6.942;2023-04-01T02:32:46;12.05;;;7.93;;
52380;SDS011;38310;52.796;6.942;2023-04-01T02:35:14;10.35;;;7.80;;
52380;SDS011;38310;52.796;6.942;2023-04-01T02:37:41;10.88;;;7.97;;
52380;SDS011;38310;52.796;6.942;2023-04-01T02:40:09;11.15;;;7.18;;
52380;SDS011;38310;52.796;6.942;2023-04-01T02:42:37;11.82;;;7.45;;
52380;SDS011;38310;52.796;6.942;2023-04-01T02:45:03;10.77;;;6.80;;
52380;SDS011;38310;52.796;6.942;2023-04-01T02:47:30;9.20;;;6.80;;
52380;SDS011;38310;52.796;6.942;2023-04-01T02:49:56;12.38;;;7.38;;
52380;SDS011;38310;52.796;6.942;2023-04-01T02:52:25;10.70;;;7.25;;
52380;SDS011;38310;52.796;6.942;2023-04-01T02:54:51;11.18;;;7.85;;
52380;SDS011;38310;52.796;6.942;2023-04-01T02:57:16;10.43;;;7.40;;
52380;SDS011;38310;52.796;6.942;2023-04-01T02:59:42;12.27;;;6.75;;
52380;SDS011;38310;52.796;6.942;2023-04-01T03:02:08;11.57;;;7.80;;
52380;SDS011;38310;52.796;6.942;2023-04-01T03:04:34;9.05;;;6.90;;
52380;SDS011;38310;52.796;6.942;2023-04-01T03:07:00;9.25;;;7.05;;
52380;SDS011;38310;52.796;6.942;2023-04-01T03:09:26;10.80;;;7.07;;
52380;SDS011;38310;52.796;6.942;2023-04-01T03:11:51;8.52;;;6.38;;
52380;SDS011;38310;52.796;6.942;2023-04-01T03:14:17;10.38;;;6.25;;
52380;SDS011;38310;52.796;6.942;2023-04-01T03:16:43;9.93;;;7.05;;
52380;SDS011;38310;52.796;6.942;2023-04-01T03:19:08;10.82;;;6.72;;
52380;SDS011;38310;52.796;6.942;2023-04-01T03:21:34;12.38;;;7.30;;
52380;SDS011;38310;52.796;6.942;2023-04-01T03:24:00;10.30;;;7.10;;
52380;SDS011;38310;52.796;6.942;2023-04-01T03:26:26;13.30;;;7.80;;
52380;SDS011;38310;52.796;6.942;2023-04-01T03:28:52;11.57;;;7.63;;
52380;SDS011;38310;52.796;6.942;2023-04-01T03:31:18;11.93;;;7.20;;
52380;SDS011;38310;52.796;6.942;2023-04-01T03:33:44;9.70;;;7.38;;
52380;SDS011;38310;52.796;6.942;2023-04-01T03:36:10;10.48;;;7.25;;
52380;SDS011;38310;52.796;6.942;2023-04-01T03:38:37;12.43;;;7.70;;
52380;SDS011;38310;52.796;6.942;2023-04-01T03:41:05;9.35;;;6.47;;
52380;SDS011;38310;52.796;6.942;2023-04-01T03:43:31;11.77;;;7.10;;
52380;SDS011;38310;52.796;6.942;2023-04-01T03:45:57;10.40;;;6.53;;
52380;SDS011;38310;52.796;6.942;2023-04-01T03:48:23;9.27;;;6.78;;
52380;SDS011;38310;52.796;6.942;2023-04-01T03:50:50;10.27;;;7.22;;
52380;SDS011;38310;52.796;6.942;2023-04-01T03:53:16;10.23;;;7.32;;
52380;SDS011;38310;52.796;6.942;2023-04-01T03:55:42;11.00;;;7.50;;
52380;SDS011;38310;52.796;6.942;2023-04-01T03:58:08;11.02;;;8.00;;
52380;SDS011;38310;52.796;6.942;2023-04-01T04:00:34;11.85;;;6.97;;
52380;SDS011;38310;52.796;6.942;2023-04-01T04:03:00;11.90;;;7.75;;
52380;SDS011;38310;52.796;6.942;2023-04-01T04:05:26;11.75;;;8.32;;
52380;SDS011;38310;52.796;6.942;2023-04-01T04:07:52;10.88;;;7.90;;
52380;SDS011;38310;52.796;6.942;2023-04-01T04:10:19;11.65;;;7.68;;
52380;SDS011;38310;52.796;6.942;2023-04-01T04:12:45;9.98;;;7.43;;
52380;SDS011;38310;52.796;6.942;2023-04-01T04:15:11;11.00;;;8.30;;
52380;SDS011;38310;52.796;6.942;2023-04-01T04:17:37;10.63;;;8.07;;
52380;SDS011;38310;52.796;6.942;2023-04-01T04:20:03;12.60;;;9.13;;
52380;SDS011;38310;52.796;6.942;2023-04-01T04:22:29;13.20;;;9.27;;
52380;SDS011;38310;52.796;6.942;2023-04-01T04:24:55;13.30;;;9.57;;
52380;SDS011;38310;52.796;6.942;2023-04-01T04:27:20;10.93;;;7.60;;
52380;SDS011;38310;52.796;6.942;2023-04-01T04:29:46;11.75;;;9.13;;
52380;SDS011;38310;52.796;6.942;2023-04-01T04:32:12;13.10;;;9.40;;
52380;SDS011;38310;52.796;6.942;2023-04-01T04:34:37;14.40;;;9.55;;
52380;SDS011;38310;52.796;6.942;2023-04-01T04:37:03;17.50;;;10.00;;
52380;SDS011;38310;52.796;6.942;2023-04-01T04:39:29;13.45;;;10.55;;
52380;SDS011;38310;52.796;6.942;2023-04-01T04:41:55;14.13;;;10.52;;
52380;SDS011;38310;52.796;6.942;2023-04-01T04:44:20;15.88;;;11.05;;
52380;SDS011;38310;52.796;6.942;2023-04-01T04:46:46;17.52;;;11.98;;
52380;SDS011;38310;52.796;6.942;2023-04-01T04:49:12;17.60;;;12.73;;
52380;SDS011;38310;52.796;6.942;2023-04-01T04:51:38;18.88;;;13.93;;
52380;SDS011;38310;52.796;6.942;2023-04-01T04:54:04;19.73;;;15.60;;
52380;SDS011;38310;52.796;6.942;2023-04-01T04:56:31;20.85;;;16.08;;
52380;SDS011;38310;52.796;6.942;2023-04-01T04:58:57;26.13;;;19.20;;
52380;SDS011;38310;52.796;6.942;2023-04-01T05:01:23;27.63;;;18.55;;
52380;SDS011;38310;52.796;6.942;2023-04-01T05:03:49;25.00;;;17.13;;
52380;SDS011;38310;52.796;6.942;2023-04-01T05:06:15;26.20;;;18.52;;
52380;SDS011;38310;52.796;6.942;2023-04-01T05:08:42;27.33;;;18.25;;
52380;SDS011;38310;52.796;6.942;2023-04-01T05:11:10;24.17;;;18.27;;
52380;SDS011;38310;52.796;6.942;2023-04-01T05:13:39;22.23;;;16.77;;
52380;SDS011;38310;52.796;6.942;2023-04-01T05:16:09;26.25;;;18.38;;
52380;SDS011;38310;52.796;6.942;2023-04-01T05:18:36;26.33;;;18.08;;
52380;SDS011;38310;52.796;6.942;2023-04-01T05:21:02;22.08;;;16.33;;
52380;SDS011;38310;52.796;6.942;2023-04-01T05:23:28;21.00;;;16.13;;
52380;SDS011;38310;52.796;6.942;2023-04-01T05:25:55;26.17;;;16.75;;
52380;SDS011;38310;52.796;6.942;2023-04-01T05:28:22;21.75;;;16.80;;
52380;SDS011;38310;52.796;6.942;2023-04-01T05:30:48;25.05;;;17.95;;
52380;SDS011;38310;52.796;6.942;2023-04-01T05:33:14;20.38;;;14.52;;
52380;SDS011;38310;52.796;6.942;2023-04-01T05:35:40;23.88;;;17.25;;
52380;SDS011;38310;52.796;6.942;2023-04-01T05:38:05;20.00;;;14.48;;
52380;SDS011;38310;52.796;6.942;2023-04-01T05:40:31;20.35;;;14.52;;
52380;SDS011;38310;52.796;6.942;2023-04-01T05:42:58;22.48;;;16.55;;
52380;SDS011;38310;52.796;6.942;2023-04-01T05:45:24;17.67;;;13.02;;
52380;SDS011;38310;52.796;6.942;2023-04-01T05:47:50;22.60;;;15.43;;
52380;SDS011;38310;52.796;6.942;2023-04-01T05:50:15;22.08;;;15.98;;
52380;SDS011;38310;52.796;6.942;2023-04-01T05:52:41;19.15;;;14.05;;
52380;SDS011;38310;52.796;6.942;2023-04-01T05:55:07;20.70;;;14.68;;
52380;SDS011;38310;52.796;6.942;2023-04-01T05:57:33;24.63;;;16.98;;
52380;SDS011;38310;52.796;6.942;2023-04-01T05:59:59;23.73;;;17.20;;
52380;SDS011;38310;52.796;6.942;2023-04-01T06:02:25;21.92;;;15.60;;
52380;SDS011;38310;52.796;6.942;2023-04-01T06:05:02;18.55;;;12.80;;
52380;SDS011;38310;52.796;6.942;2023-04-01T06:07:39;22.15;;;16.45;;
52380;SDS011;38310;52.796;6.942;2023-04-01T06:10:09;20.08;;;15.38;;
52380;SDS011;38310;52.796;6.942;2023-04-01T06:12:57;18.38;;;13.70;;
52380;SDS011;38310;52.796;6.942;2023-04-01T06:26:53;21.88;;;15.15;;
52380;SDS011;38310;52.796;6.942;2023-04-01T06:40:35;18.65;;;13.38;;
52380;SDS011;38310;52.796;6.942;2023-04-01T06:54:36;16.45;;;12.13;;
52380;SDS011;38310;52.796;6.942;2023-04-01T06:59:50;15.85;;;10.80;;
52380;SDS011;38310;52.796;6.942;2023-04-01T07:02:53;14.27;;;9.60;;
52380;SDS011;38310;52.796;6.942;2023-04-01T07:05:20;15.32;;;10.88;;
52380;SDS011;38310;52.796;6.942;2023-04-01T07:07:49;15.05;;;10.88;;
52380;SDS011;38310;52.796;6.942;2023-04-01T07:10:41;15.00;;;10.50;;
52380;SDS011;38310;52.796;6.942;2023-04-01T07:13:15;14.30;;;10.35;;
52380;SDS011;38310;52.796;6.942;2023-04-01T07:15:58;14.25;;;9.38;;
52380;SDS011;38310;52.796;6.942;2023-04-01T07:21:30;13.93;;;10.10;;
52380;SDS011;38310;52.796;6.942;2023-04-01T07:24:03;13.05;;;9.52;;
52380;SDS011;38310;52.796;6.942;2023-04-01T07:26:34;12.98;;;9.35;;
52380;SDS011;38310;52.796;6.942;2023-04-01T07:29:00;13.43;;;9.52;;
52380;SDS011;38310;52.796;6.942;2023-04-01T07:37:26;15.00;;;9.30;;
52380;SDS011;38310;52.796;6.942;2023-04-01T07:42:24;12.48;;;8.65;;
52380;SDS011;38310;52.796;6.942;2023-04-01T07:45:23;12.52;;;8.95;;
52380;SDS011;38310;52.796;6.942;2023-04-01T07:50:42;11.85;;;7.55;;
52380;SDS011;38310;52.796;6.942;2023-04-01T07:59:05;10.15;;;6.95;;
52380;SDS011;38310;52.796;6.942;2023-04-01T08:01:45;10.40;;;7.25;;
52380;SDS011;38310;52.796;6.942;2023-04-01T08:04:33;10.40;;;7.63;;
52380;SDS011;38310;52.796;6.942;2023-04-01T08:07:13;8.10;;;5.95;;
52380;SDS011;38310;52.796;6.942;2023-04-01T08:18:27;10.70;;;6.70;;
52380;SDS011;38310;52.796;6.942;2023-04-01T08:21:01;9.70;;;5.85;;
52380;SDS011;38310;52.796;6.942;2023-04-01T08:23:33;8.38;;;4.95;;
52380;SDS011;38310;52.796;6.942;2023-04-01T08:26:10;6.53;;;4.43;;
52380;SDS011;38310;52.796;6.942;2023-04-01T08:28:55;6.50;;;3.30;;
52380;SDS011;38310;52.796;6.942;2023-04-01T08:31:30;6.03;;;3.47;;
52380;SDS011;38310;52.796;6.942;2023-04-01T08:34:03;6.43;;;3.63;;
52380;SDS011;38310;52.796;6.942;2023-04-01T08:36:36;4.68;;;3.13;;
52380;SDS011;38310;52.796;6.942;2023-04-01T08:39:24;3.25;;;2.30;;
52380;SDS011;38310;52.796;6.942;2023-04-01T08:44:27;4.03;;;2.20;;
52380;SDS011;38310;52.796;6.942;2023-04-01T08:55:38;5.22;;;2.95;;
52380;SDS011;38310;52.796;6.942;2023-04-01T09:00:56;5.80;;;3.35;;
52380;SDS011;38310;52.796;6.942;2023-04-01T09:06:29;6.32;;;3.72;;
52380;SDS011;38310;52.796;6.942;2023-04-01T09:09:02;5.60;;;4.00;;
52380;SDS011;38310;52.796;6.942;2023-04-01T09:11:52;7.97;;;4.55;;
52380;SDS011;38310;52.796;6.942;2023-04-01T09:15:01;7.43;;;4.65;;
52380;SDS011;38310;52.796;6.942;2023-04-01T09:38:28;7.38;;;5.38;;
52380;SDS011;38310;52.796;6.942;2023-04-01T09:46:47;8.32;;;5.60;;
52380;SDS011;38310;52.796;6.942;2023-04-01T09:49:55;7.53;;;5.38;;
52380;SDS011;38310;52.796;6.942;2023-04-01T10:23:27;6.25;;;4.70;;
52380;SDS011;38310;52.796;6.942;2023-04-01T10:32:11;7.40;;;4.95;;
52380;SDS011;38310;52.796;6.942;2023-04-01T10:54:38;6.82;;;4.88;;
52380;SDS011;38310;52.796;6.942;2023-04-01T11:00:08;10.38;;;5.65;;
52380;SDS011;38310;52.796;6.942;2023-04-01T11:09:26;9.70;;;7.70;;
52380;SDS011;38310;52.796;6.942;2023-04-01T11:12:02;10.85;;;8.40;;
52380;SDS011;38310;52.796;6.942;2023-04-01T11:15:00;13.20;;;8.45;;
52380;SDS011;38310;52.796;6.942;2023-04-01T11:25:50;10.38;;;8.55;;
52380;SDS011;38310;52.796;6.942;2023-04-01T11:41:52;6.60;;;5.03;;
52380;SDS011;38310;52.796;6.942;2023-04-01T11:44:32;6.30;;;4.70;;
52380;SDS011;38310;52.796;6.942;2023-04-01T12:01:10;5.72;;;4.30;;
52380;SDS011;38310;52.796;6.942;2023-04-01T12:17:30;3.88;;;3.42;;
52380;SDS011;38310;52.796;6.942;2023-04-01T12:31:37;3.60;;;2.80;;
52380;SDS011;38310;52.796;6.942;2023-04-01T12:36:40;4.35;;;3.35;;
52380;SDS011;38310;52.796;6.942;2023-04-01T12:58:00;4.70;;;3.80;;
52380;SDS011;38310;52.796;6.942;2023-04-01T13:14:50;5.90;;;4.28;;
52380;SDS011;38310;52.796;6.942;2023-04-01T13:17:26;5.22;;;4.20;;
52380;SDS011;38310;52.796;6.942;2023-04-01T13:20:06;4.57;;;3.70;;
52380;SDS011;38310;52.796;6.942;2023-04-01T13:28:13;5.43;;;4.05;;
52380;SDS011;38310;52.796;6.942;2023-04-01T13:31:00;4.75;;;3.88;;
52380;SDS011;38310;52.796;6.942;2023-04-01T13:33:45;4.72;;;3.67;;
52380;SDS011;38310;52.796;6.942;2023-04-01T13:36:19;5.28;;;4.13;;
52380;SDS011;38310;52.796;6.942;2023-04-01T13:44:43;4.32;;;3.35;;
52380;SDS011;38310;52.796;6.942;2023-04-01T13:47:21;4.85;;;3.90;;
52380;SDS011;38310;52.796;6.942;2023-04-01T14:03:58;4.93;;;3.80;;
52380;SDS011;38310;52.796;6.942;2023-04-01T14:09:21;5.38;;;4.25;;
52380;SDS011;38310;52.796;6.942;2023-04-01T14:14:40;6.57;;;4.28;;
52380;SDS011;38310;52.796;6.942;2023-04-01T14:39:20;7.38;;;6.57;;
52380;SDS011;38310;52.796;6.942;2023-04-01T14:42:03;7.68;;;6.35;;
52380;SDS011;38310;52.796;6.942;2023-04-01T14:47:56;7.05;;;6.18;;
52380;SDS011;38310;52.796;6.942;2023-04-01T14:50:44;7.82;;;7.00;;
52380;SDS011;38310;52.796;6.942;2023-04-01T14:53:16;8.23;;;7.00;;
52380;SDS011;38310;52.796;6.942;2023-04-01T14:55:50;5.63;;;5.03;;
52380;SDS011;38310;52.796;6.942;2023-04-01T14:58:21;6.63;;;5.95;;
52380;SDS011;38310;52.796;6.942;2023-04-01T15:15:05;6.45;;;5.30;;
52380;SDS011;38310;52.796;6.942;2023-04-01T15:17:46;4.97;;;4.47;;
52380;SDS011;38310;52.796;6.942;2023-04-01T15:20:40;5.80;;;5.20;;
52380;SDS011;38310;52.796;6.942;2023-04-01T15:23:45;4.35;;;3.95;;
52380;SDS011;38310;52.796;6.942;2023-04-01T15:26:28;4.93;;;4.40;;
52380;SDS011;38310;52.796;6.942;2023-04-01T15:29:31;5.60;;;5.10;;
52380;SDS011;38310;52.796;6.942;2023-04-01T15:35:59;5.30;;;4.75;;
52380;SDS011;38310;52.796;6.942;2023-04-01T15:41:11;4.60;;;4.20;;
52380;SDS011;38310;52.796;6.942;2023-04-01T15:43:49;4.45;;;4.05;;
52380;SDS011;38310;52.796;6.942;2023-04-01T15:51:41;3.75;;;3.35;;
52380;SDS011;38310;52.796;6.942;2023-04-01T15:54:27;4.55;;;4.15;;
52380;SDS011;38310;52.796;6.942;2023-04-01T16:02:51;4.75;;;4.30;;
52380;SDS011;38310;52.796;6.942;2023-04-01T16:05:25;4.45;;;4.05;;
52380;SDS011;38310;52.796;6.942;2023-04-01T16:22:23;5.72;;;4.60;;
52380;SDS011;38310;52.796;6.942;2023-04-01T16:27:16;6.18;;;4.40;;
52380;SDS011;38310;52.796;6.942;2023-04-01T16:29:48;4.10;;;3.67;;
52380;SDS011;38310;52.796;6.942;2023-04-01T16:37:54;5.07;;;3.88;;
52380;SDS011;38310;52.796;6.942;2023-04-01T16:40:35;4.93;;;4.25;;
52380;SDS011;38310;52.796;6.942;2023-04-01T16:43:25;4.97;;;4.43;;
52380;SDS011;38310;52.796;6.942;2023-04-01T16:51:52;4.85;;;3.83;;
52380;SDS011;38310;52.796;6.942;2023-04-01T16:57:25;6.00;;;5.40;;
52380;SDS011;38310;52.796;6.942;2023-04-01T17:00:17;5.80;;;5.20;;
52380;SDS011;38310;52.796;6.942;2023-04-01T17:10:57;6.30;;;5.70;;
52380;SDS011;38310;52.796;6.942;2023-04-01T17:18:59;6.57;;;5.95;;
52380;SDS011;38310;52.796;6.942;2023-04-01T17:41:27;7.57;;;6.88;;
52380;SDS011;38310;52.796;6.942;2023-04-01T17:49:37;9.32;;;7.20;;
52380;SDS011;38310;52.796;6.942;2023-04-01T17:52:21;7.38;;;6.68;;
52380;SDS011;38310;52.796;6.942;2023-04-01T18:00:37;9.55;;;7.85;;
52380;SDS011;38310;52.796;6.942;2023-04-01T18:05:35;9.32;;;8.43;;
52380;SDS011;38310;52.796;6.942;2023-04-01T18:17:18;8.63;;;7.82;;
52380;SDS011;38310;52.796;6.942;2023-04-01T18:20:02;10.45;;;8.43;;
52380;SDS011;38310;52.796;6.942;2023-04-01T18:25:34;8.63;;;7.82;;
52380;SDS011;38310;52.796;6.942;2023-04-01T18:28:18;8.95;;;8.05;;
52380;SDS011;38310;52.796;6.942;2023-04-01T18:42:03;10.75;;;9.20;;
52380;SDS011;38310;52.796;6.942;2023-04-01T18:44:47;12.48;;;11.18;;
52380;SDS011;38310;52.796;6.942;2023-04-01T18:52:40;13.93;;;11.90;;
52380;SDS011;38310;52.796;6.942;2023-04-01T18:58:06;14.75;;;13.15;;
52380;SDS011;38310;52.796;6.942;2023-04-01T19:00:41;11.40;;;10.23;;
52380;SDS011;38310;52.796;6.942;2023-04-01T19:05:48;12.75;;;11.13;;
52380;SDS011;38310;52.796;6.942;2023-04-01T19:11:37;13.75;;;11.85;;
52380;SDS011;38310;52.796;6.942;2023-04-01T19:14:08;11.85;;;10.55;;
52380;SDS011;38310;52.796;6.942;2023-04-01T19:17:05;12.90;;;11.50;;
52380;SDS011;38310;52.796;6.942;2023-04-01T19:39:39;12.50;;;11.10;;
52380;SDS011;38310;52.796;6.942;2023-04-01T19:42:17;12.82;;;11.20;;
52380;SDS011;38310;52.796;6.942;2023-04-01T19:54:01;11.38;;;10.18;;
52380;SDS011;38310;52.796;6.942;2023-04-01T19:56:31;11.57;;;10.35;;
52380;SDS011;38310;52.796;6.942;2023-04-01T20:18:13;10.75;;;9.70;;
52380;SDS011;38310;52.796;6.942;2023-04-01T20:20:54;12.52;;;9.68;;
52380;SDS011;38310;52.796;6.942;2023-04-01T20:23:43;11.07;;;9.88;;
52380;SDS011;38310;52.796;6.942;2023-04-01T20:26:36;10.65;;;8.90;;
52380;SDS011;38310;52.796;6.942;2023-04-01T20:31:43;11.25;;;9.90;;
52380;SDS011;38310;52.796;6.942;2023-04-01T20:34:36;10.73;;;9.63;;
52380;SDS011;38310;52.796;6.942;2023-04-01T20:42:53;14.27;;;10.70;;
52380;SDS011;38310;52.796;6.942;2023-04-01T20:45:38;14.98;;;10.82;;
52380;SDS011;38310;52.796;6.942;2023-04-01T20:50:53;14.65;;;11.95;;
52380;SDS011;38310;52.796;6.942;2023-04-01T20:56:23;13.82;;;11.32;;
52380;SDS011;38310;52.796;6.942;2023-04-01T21:02:12;13.23;;;11.82;;
52380;SDS011;38310;52.796;6.942;2023-04-01T21:07:52;15.63;;;11.95;;
52380;SDS011;38310;52.796;6.942;2023-04-01T21:10:37;18.17;;;12.15;;
52380;SDS011;38310;52.796;6.942;2023-04-01T21:13:31;15.70;;;12.50;;
52380;SDS011;38310;52.796;6.942;2023-04-01T21:29:55;14.52;;;11.85;;
52380;SDS011;38310;52.796;6.942;2023-04-01T21:38:27;13.20;;;11.45;;
52380;SDS011;38310;52.796;6.942;2023-04-01T21:54:44;15.77;;;12.27;;
52380;SDS011;38310;52.796;6.942;2023-04-01T22:03:11;15.43;;;11.77;;
52380;SDS011;38310;52.796;6.942;2023-04-01T22:06:17;13.50;;;10.88;;
52380;SDS011;38310;52.796;6.942;2023-04-01T22:09:06;14.02;;;11.05;;
52380;SDS011;38310;52.796;6.942;2023-04-01T22:12:08;13.23;;;11.38;;
52380;SDS011;38310;52.796;6.942;2023-04-01T22:17:59;14.40;;;11.80;;
52380;SDS011;38310;52.796;6.942;2023-04-01T22:20:53;13.68;;;10.98;;
52380;SDS011;38310;52.796;6.942;2023-04-01T22:31:43;16.35;;;10.90;;
52380;SDS011;38310;52.796;6.942;2023-04-01T22:42:43;12.80;;;11.50;;
52380;SDS011;38310;52.796;6.942;2023-04-01T22:45:27;13.63;;;10.98;;
52380;SDS011;38310;52.796;6.942;2023-04-01T22:50:35;12.88;;;10.85;;
52380;SDS011;38310;52.796;6.942;2023-04-01T22:53:29;13.50;;;11.48;;
52380;SDS011;38310;52.796;6.942;2023-04-01T22:56:07;15.57;;;11.13;;
52380;SDS011;38310;52.796;6.942;2023-04-01T22:58:46;13.30;;;11.55;;
52380;SDS011;38310;52.796;6.942;2023-04-01T23:01:21;13.93;;;10.90;;
52380;SDS011;38310;52.796;6.942;2023-04-01T23:03:54;12.63;;;10.93;;
52380;SDS011;38310;52.796;6.942;2023-04-01T23:06:31;12.90;;;11.25;;
52380;SDS011;38310;52.796;6.942;2023-04-01T23:19:40;11.20;;;10.00;;
52380;SDS011;38310;52.796;6.942;2023-04-01T23:25:27;12.80;;;9.77;;
52380;SDS011;38310;52.796;6.942;2023-04-01T23:28:16;12.10;;;9.73;;
52380;SDS011;38310;52.796;6.942;2023-04-01T23:30:56;12.52;;;9.57;;
52380;SDS011;38310;52.796;6.942;2023-04-01T23:33:23;11.88;;;9.43;;
52380;SDS011;38310;52.796;6.942;2023-04-01T23:38:22;12.60;;;9.25;;
52380;SDS011;38310;52.796;6.942;2023-04-01T23:40:51;12.73;;;9.75;;
52380;SDS011;38310;52.796;6.942;2023-04-01T23:43:24;11.73;;;9.60;;
52380;SDS011;38310;52.796;6.942;2023-04-01T23:46:03;12.18;;;8.85;;
52380;SDS011;38310;52.796;6.942;2023-04-01T23:48:36;13.65;;;9.75;;
52380;SDS011;38310;52.796;6.942;2023-04-01T23:51:49;10.88;;;9.15;;
52380;SDS011;38310;52.796;6.942;2023-04-01T23:54:10;13.13;;;8.70;;
52380;SDS011;38310;52.796;6.942;2023-04-01T23:56:45;10.65;;;8.50;;
52380;SDS011;38310;52.796;6.942;2023-04-01T23:59:17;12.02;;;9.27;;
